createdAt,value
2022-11-08T00:00:07.738Z,9.79
2022-11-08T00:00:18.482Z,9.76
2022-11-08T00:00:30.896Z,9.76
2022-11-08T00:00:41.646Z,9.76
2022-11-08T00:00:52.438Z,9.75
2022-11-08T00:01:03.200Z,9.75
2022-11-08T00:01:13.956Z,9.73
2022-11-08T00:01:24.860Z,9.75
2022-11-08T00:01:35.665Z,9.73
2022-11-08T00:01:47.973Z,9.75
2022-11-08T00:01:59.088Z,9.73
2022-11-08T00:02:09.988Z,9.70
2022-11-08T00:02:20.946Z,9.71
2022-11-08T00:02:32.014Z,9.68
2022-11-08T00:02:43.003Z,9.70
2022-11-08T00:02:53.857Z,9.70
2022-11-08T00:03:05.672Z,9.68
2022-11-08T00:03:16.462Z,9.67
2022-11-08T00:03:27.260Z,9.64
2022-11-08T00:03:37.997Z,9.64
2022-11-08T00:03:48.757Z,9.64
2022-11-08T00:04:01.458Z,9.63
2022-11-08T00:04:12.237Z,9.63
2022-11-08T00:04:22.958Z,9.61
2022-11-08T00:04:33.701Z,9.61
2022-11-08T00:04:45.929Z,9.58
2022-11-08T00:04:56.669Z,9.57
2022-11-08T00:05:07.406Z,9.57
2022-11-08T00:05:18.173Z,9.56
2022-11-08T00:05:28.898Z,9.56
2022-11-08T00:05:41.365Z,9.56
2022-11-08T00:05:53.067Z,9.53
2022-11-08T00:06:05.518Z,9.52
2022-11-08T00:06:16.255Z,9.52
2022-11-08T00:06:27.021Z,9.50
2022-11-08T00:06:37.747Z,9.50
2022-11-08T00:06:49.508Z,9.48
2022-11-08T00:07:01.707Z,9.48
2022-11-08T00:07:12.478Z,9.48
2022-11-08T00:07:23.250Z,9.46
2022-11-08T00:07:34.937Z,9.45
2022-11-08T00:07:45.677Z,9.43
2022-11-08T00:07:56.409Z,9.43
2022-11-08T00:08:08.102Z,9.42
2022-11-08T00:08:20.266Z,9.42
2022-11-08T00:08:31.243Z,9.40
2022-11-08T00:08:43.706Z,9.42
2022-11-08T00:08:56.401Z,9.40
2022-11-08T00:09:07.169Z,9.40
2022-11-08T00:09:17.907Z,9.40
2022-11-08T00:09:29.598Z,9.40
2022-11-08T00:09:40.380Z,9.40
2022-11-08T00:09:52.610Z,9.39
2022-11-08T00:10:03.340Z,9.38
2022-11-08T00:10:15.808Z,9.39
2022-11-08T00:10:26.581Z,9.38
2022-11-08T00:10:37.338Z,9.35
2022-11-08T00:10:48.101Z,9.38
2022-11-08T00:10:59.839Z,9.38
2022-11-08T00:11:10.611Z,9.35
2022-11-08T00:11:22.752Z,9.34
2022-11-08T00:11:33.491Z,9.34
2022-11-08T00:11:45.449Z,9.32
2022-11-08T00:11:56.246Z,9.32
2022-11-08T00:12:07.950Z,9.32
2022-11-08T00:12:20.448Z,9.32
2022-11-08T00:12:32.220Z,9.31
2022-11-08T00:12:43.963Z,9.31
2022-11-08T00:12:56.373Z,9.31
2022-11-08T00:13:09.298Z,9.31
2022-11-08T00:13:21.740Z,9.30
2022-11-08T00:13:33.465Z,9.28
2022-11-08T00:13:44.231Z,9.28
2022-11-08T00:13:54.992Z,9.28
2022-11-08T00:14:05.751Z,9.28
2022-11-08T00:14:16.521Z,9.28
2022-11-08T00:14:27.280Z,9.25
2022-11-08T00:14:38.013Z,9.25
2022-11-08T00:14:48.748Z,9.25
2022-11-08T00:15:01.201Z,9.24
2022-11-08T00:15:11.934Z,9.24
2022-11-08T00:15:23.555Z,9.23
2022-11-08T00:15:34.301Z,9.23
2022-11-08T00:15:45.052Z,9.23
2022-11-08T00:15:55.819Z,9.21
2022-11-08T00:16:06.559Z,9.21
2022-11-08T00:16:18.271Z,9.21
2022-11-08T00:16:30.700Z,9.18
2022-11-08T00:16:43.151Z,9.18
2022-11-08T00:16:53.902Z,9.16
2022-11-08T00:17:04.693Z,9.18
2022-11-08T00:17:15.449Z,9.16
2022-11-08T00:17:26.195Z,9.15
2022-11-08T00:17:36.930Z,9.15
2022-11-08T00:17:49.431Z,9.12
2022-11-08T00:18:00.193Z,9.12
2022-11-08T00:18:10.971Z,9.10
2022-11-08T00:18:22.691Z,9.10
2022-11-08T00:18:33.510Z,9.10
2022-11-08T00:18:44.291Z,9.10
2022-11-08T00:18:57.533Z,9.06
2022-11-08T00:19:10.225Z,9.06
2022-11-08T00:19:22.671Z,9.05
2022-11-08T00:19:34.361Z,9.05
2022-11-08T00:19:46.100Z,9.04
2022-11-08T00:19:57.781Z,9.04
2022-11-08T00:20:08.512Z,9.04
2022-11-08T00:20:20.244Z,9.01
2022-11-08T00:20:31.955Z,9.02
2022-11-08T00:20:42.681Z,9.01
2022-11-08T00:20:55.192Z,9.01
2022-11-08T00:21:07.729Z,8.97
2022-11-08T00:21:19.433Z,8.97
2022-11-08T00:21:30.171Z,8.97
2022-11-08T00:21:40.902Z,8.96
2022-11-08T00:21:51.674Z,8.94
2022-11-08T00:22:02.435Z,8.94
2022-11-08T00:22:13.181Z,8.94
2022-11-08T00:22:24.917Z,8.93
2022-11-08T00:22:36.657Z,8.91
2022-11-08T00:22:47.437Z,8.94
2022-11-08T00:22:59.650Z,8.90
2022-11-08T00:23:11.372Z,8.90
2022-11-08T00:23:23.822Z,8.88
2022-11-08T00:23:34.572Z,8.88
2022-11-08T00:23:47.531Z,8.88
2022-11-08T00:23:59.235Z,8.87
2022-11-08T00:24:11.662Z,8.86
2022-11-08T00:24:22.430Z,8.84
2022-11-08T00:24:34.654Z,8.84
2022-11-08T00:24:45.385Z,8.83
2022-11-08T00:24:56.211Z,8.81
2022-11-08T00:25:06.957Z,8.81
2022-11-08T00:25:17.712Z,8.79
2022-11-08T00:25:29.482Z,8.81
2022-11-08T00:25:40.203Z,8.79
2022-11-08T00:25:52.405Z,8.78
2022-11-08T00:26:05.104Z,8.76
2022-11-08T00:26:15.846Z,8.76
2022-11-08T00:26:26.592Z,8.76
2022-11-08T00:26:37.353Z,8.75
2022-11-08T00:26:49.573Z,8.73
2022-11-08T00:27:02.777Z,8.73
2022-11-08T00:27:13.513Z,8.72
2022-11-08T00:27:26.750Z,8.72
2022-11-08T00:27:37.473Z,8.72
2022-11-08T00:27:48.209Z,8.71
2022-11-08T00:27:58.946Z,8.69
2022-11-08T00:28:10.684Z,8.68
2022-11-08T00:28:21.487Z,8.68
2022-11-08T00:28:32.223Z,8.68
2022-11-08T00:28:44.453Z,8.68
2022-11-08T00:28:55.223Z,8.66
2022-11-08T00:29:05.963Z,8.66
2022-11-08T00:29:16.713Z,8.65
2022-11-08T00:29:28.911Z,8.65
2022-11-08T00:29:39.705Z,8.63
2022-11-08T00:29:51.458Z,8.63
2022-11-08T00:30:02.242Z,8.63
2022-11-08T00:30:12.978Z,8.63
2022-11-08T00:30:23.745Z,8.65
2022-11-08T00:30:34.513Z,8.65
2022-11-08T00:30:45.243Z,8.65
2022-11-08T00:30:57.434Z,8.65
2022-11-08T00:31:08.203Z,8.68
2022-11-08T00:31:18.971Z,8.68
2022-11-08T00:31:30.773Z,8.66
2022-11-08T00:31:42.995Z,8.68
2022-11-08T00:31:53.783Z,8.68
2022-11-08T00:32:04.514Z,8.68
2022-11-08T00:32:15.244Z,8.69
2022-11-08T00:32:26.004Z,8.68
2022-11-08T00:32:36.745Z,8.69
2022-11-08T00:32:48.443Z,8.68
2022-11-08T00:32:59.177Z,8.68
2022-11-08T00:33:11.603Z,8.69
2022-11-08T00:33:22.369Z,8.69
2022-11-08T00:33:34.145Z,8.68
2022-11-08T00:33:44.940Z,8.69
2022-11-08T00:33:55.674Z,8.69
2022-11-08T00:34:08.625Z,8.69
2022-11-08T00:34:19.385Z,8.69
2022-11-08T00:34:31.115Z,8.71
2022-11-08T00:34:43.596Z,8.69
2022-11-08T00:34:54.334Z,8.73
2022-11-08T00:35:05.075Z,8.72
2022-11-08T00:35:15.826Z,8.73
2022-11-08T00:35:26.577Z,8.75
2022-11-08T00:35:37.385Z,8.75
2022-11-08T00:35:49.116Z,8.75
2022-11-08T00:36:01.585Z,8.75
2022-11-08T00:36:12.317Z,8.76
2022-11-08T00:36:24.037Z,8.75
2022-11-08T00:36:34.797Z,8.76
2022-11-08T00:36:47.255Z,8.76
2022-11-08T00:36:59.695Z,8.78
2022-11-08T00:37:10.476Z,8.76
2022-11-08T00:37:22.967Z,8.76
2022-11-08T00:37:33.708Z,8.75
2022-11-08T00:37:45.423Z,8.75
2022-11-08T00:37:56.168Z,8.73
2022-11-08T00:38:08.596Z,8.75
2022-11-08T00:38:20.751Z,8.75
2022-11-08T00:38:31.605Z,8.76
2022-11-08T00:38:44.025Z,8.76
2022-11-08T00:38:57.248Z,8.79
2022-11-08T00:39:07.985Z,8.79
2022-11-08T00:39:20.396Z,8.79
2022-11-08T00:39:31.145Z,8.79
2022-11-08T00:39:42.868Z,8.79
2022-11-08T00:39:57.576Z,8.79
2022-11-08T00:40:08.380Z,8.79
2022-11-08T00:40:20.087Z,8.79
2022-11-08T00:40:32.797Z,8.79
2022-11-08T00:40:43.556Z,8.81
2022-11-08T00:40:54.311Z,8.83
2022-11-08T00:41:05.035Z,8.81
2022-11-08T00:41:15.819Z,8.83
2022-11-08T00:41:28.762Z,8.83
2022-11-08T00:41:40.497Z,8.84
2022-11-08T00:41:52.219Z,8.84
2022-11-08T00:42:04.067Z,8.84
2022-11-08T00:42:14.848Z,8.84
2022-11-08T00:42:25.699Z,8.84
2022-11-08T00:42:37.906Z,8.86
2022-11-08T00:42:48.628Z,8.87
2022-11-08T00:42:59.357Z,8.87
2022-11-08T00:43:11.049Z,8.90
2022-11-08T00:43:21.785Z,8.91
2022-11-08T00:43:33.517Z,8.90
2022-11-08T00:43:46.751Z,8.91
2022-11-08T00:43:57.494Z,8.91
2022-11-08T00:44:10.448Z,8.93
2022-11-08T00:44:21.205Z,8.94
2022-11-08T00:44:32.949Z,8.96
2022-11-08T00:44:43.737Z,8.97
2022-11-08T00:44:55.428Z,8.99
2022-11-08T00:45:06.179Z,9.02
2022-11-08T00:45:16.958Z,9.02
2022-11-08T00:45:27.718Z,9.04
2022-11-08T00:45:38.453Z,9.05
2022-11-08T00:45:49.199Z,9.05
2022-11-08T00:46:00.926Z,9.05
2022-11-08T00:46:11.719Z,9.04
2022-11-08T00:46:22.458Z,9.05
2022-11-08T00:46:34.209Z,9.04
2022-11-08T00:46:46.640Z,9.04
2022-11-08T00:46:58.369Z,9.05
2022-11-08T00:47:09.109Z,9.05
2022-11-08T00:47:21.330Z,9.02
2022-11-08T00:47:32.068Z,9.02
2022-11-08T00:47:42.827Z,9.02
2022-11-08T00:47:54.532Z,9.02
2022-11-08T00:48:05.282Z,9.01
2022-11-08T00:48:16.346Z,9.01
2022-11-08T00:48:28.289Z,9.01
2022-11-08T00:48:39.046Z,9.01
2022-11-08T00:48:49.788Z,8.99
2022-11-08T00:49:00.548Z,8.99
2022-11-08T00:49:12.287Z,8.99
2022-11-08T00:49:23.047Z,8.99
2022-11-08T00:49:33.820Z,8.97
2022-11-08T00:49:44.610Z,8.97
2022-11-08T00:49:55.349Z,8.97
2022-11-08T00:50:06.089Z,8.97
2022-11-08T00:50:18.799Z,8.97
2022-11-08T00:50:29.559Z,8.94
2022-11-08T00:50:43.027Z,8.94
2022-11-08T00:50:55.441Z,8.93
2022-11-08T00:51:06.189Z,8.93
2022-11-08T00:51:17.922Z,8.93
2022-11-08T00:51:29.639Z,8.91
2022-11-08T00:51:41.371Z,8.88
2022-11-08T00:51:53.600Z,8.90
2022-11-08T00:52:04.389Z,8.87
2022-11-08T00:52:15.160Z,8.88
2022-11-08T00:52:25.918Z,8.90
2022-11-08T00:52:38.388Z,8.90
2022-11-08T00:52:49.164Z,8.90
2022-11-08T00:52:59.920Z,8.91
2022-11-08T00:53:10.656Z,8.91
2022-11-08T00:53:21.389Z,8.90
2022-11-08T00:53:33.841Z,8.91
2022-11-08T00:53:44.574Z,8.88
2022-11-08T00:53:55.312Z,8.88
2022-11-08T00:54:06.038Z,8.88
2022-11-08T00:54:17.804Z,8.90
2022-11-08T00:54:28.585Z,8.88
2022-11-08T00:54:39.387Z,8.88
2022-11-08T00:54:51.832Z,8.88
2022-11-08T00:55:03.500Z,8.86
2022-11-08T00:55:15.996Z,8.86
2022-11-08T00:55:26.771Z,8.87
2022-11-08T00:55:37.543Z,8.86
2022-11-08T00:55:48.278Z,8.84
2022-11-08T00:55:59.024Z,8.86
2022-11-08T00:56:09.745Z,8.86
2022-11-08T00:56:22.289Z,8.84
2022-11-08T00:56:33.030Z,8.86
2022-11-08T00:56:43.761Z,8.87
2022-11-08T00:56:54.534Z,8.84
2022-11-08T00:57:05.280Z,8.84
2022-11-08T00:57:16.029Z,8.86
2022-11-08T00:57:41.216Z,8.84
2022-11-08T00:57:58.391Z,8.84
2022-11-08T00:58:00.333Z,8.84
2022-11-08T00:58:12.412Z,8.84
2022-11-08T00:58:27.475Z,8.84
2022-11-08T00:58:38.561Z,8.83
2022-11-08T00:58:49.321Z,8.83
2022-11-08T00:59:01.772Z,8.81
2022-11-08T00:59:12.541Z,8.81
2022-11-08T00:59:23.290Z,8.79
2022-11-08T00:59:34.011Z,8.81
2022-11-08T00:59:45.733Z,8.79
2022-11-08T00:59:56.480Z,8.78
2022-11-08T01:00:07.281Z,8.76
2022-11-08T01:00:18.033Z,8.78
2022-11-08T01:00:28.781Z,8.76
2022-11-08T01:00:41.294Z,8.75
2022-11-08T01:00:53.083Z,8.73
2022-11-08T01:01:05.553Z,8.73
2022-11-08T01:01:17.478Z,8.73
2022-11-08T01:01:30.322Z,8.72
2022-11-08T01:01:43.772Z,8.71
2022-11-08T01:01:54.794Z,8.71
2022-11-08T01:02:05.720Z,8.71
2022-11-08T01:02:16.561Z,8.69
2022-11-08T01:02:27.323Z,8.69
2022-11-08T01:02:40.337Z,8.69
2022-11-08T01:02:51.122Z,8.68
2022-11-08T01:03:01.900Z,8.68
2022-11-08T01:03:13.642Z,8.66
2022-11-08T01:03:24.437Z,8.66
2022-11-08T01:03:35.231Z,8.65
2022-11-08T01:03:45.971Z,8.63
2022-11-08T01:03:56.712Z,8.62
2022-11-08T01:04:08.470Z,8.62
2022-11-08T01:04:19.222Z,8.62
2022-11-08T01:04:31.682Z,8.62
2022-11-08T01:04:42.432Z,8.60
2022-11-08T01:04:53.203Z,8.58
2022-11-08T01:05:03.993Z,8.58
2022-11-08T01:05:14.723Z,8.60
2022-11-08T01:05:26.471Z,8.58
2022-11-08T01:05:37.224Z,8.57
2022-11-08T01:05:48.005Z,8.58
2022-11-08T01:05:58.742Z,8.55
2022-11-08T01:06:10.933Z,8.58
2022-11-08T01:06:21.672Z,8.55
2022-11-08T01:06:32.433Z,8.57
2022-11-08T01:06:43.182Z,8.55
2022-11-08T01:06:53.933Z,8.55
2022-11-08T01:07:04.663Z,8.55
2022-11-08T01:07:15.431Z,8.55
2022-11-08T01:07:26.243Z,8.55
2022-11-08T01:07:36.995Z,8.55
2022-11-08T01:07:47.794Z,8.55
2022-11-08T01:07:58.533Z,8.57
2022-11-08T01:08:10.292Z,8.55
2022-11-08T01:08:21.464Z,8.55
2022-11-08T01:08:32.355Z,8.55
2022-11-08T01:08:44.063Z,8.55
2022-11-08T01:08:54.825Z,8.54
2022-11-08T01:09:05.583Z,8.54
2022-11-08T01:09:17.293Z,8.54
2022-11-08T01:09:28.065Z,8.54
2022-11-08T01:09:38.846Z,8.55
2022-11-08T01:09:49.575Z,8.55
2022-11-08T01:10:00.337Z,8.55
2022-11-08T01:10:11.086Z,8.55
2022-11-08T01:10:21.861Z,8.58
2022-11-08T01:10:32.596Z,8.58
2022-11-08T01:10:43.374Z,8.60
2022-11-08T01:10:54.130Z,8.62
2022-11-08T01:11:05.932Z,8.62
2022-11-08T01:11:17.665Z,8.62
2022-11-08T01:11:28.473Z,8.63
2022-11-08T01:11:40.944Z,8.63
2022-11-08T01:11:52.690Z,8.65
2022-11-08T01:12:03.483Z,8.65
2022-11-08T01:12:14.250Z,8.65
2022-11-08T01:12:26.674Z,8.65
2022-11-08T01:12:37.444Z,8.66
2022-11-08T01:12:48.193Z,8.68
2022-11-08T01:12:58.923Z,8.66
2022-11-08T01:13:10.632Z,8.66
2022-11-08T01:13:21.384Z,8.66
2022-11-08T01:13:32.158Z,8.68
2022-11-08T01:13:43.906Z,8.69
2022-11-08T01:13:54.674Z,8.69
2022-11-08T01:14:05.451Z,8.69
2022-11-08T01:14:16.268Z,8.69
2022-11-08T01:14:26.992Z,8.71
2022-11-08T01:14:37.766Z,8.72
2022-11-08T01:14:48.495Z,8.71
2022-11-08T01:14:59.330Z,8.71
2022-11-08T01:15:10.121Z,8.71
2022-11-08T01:15:21.066Z,8.72
2022-11-08T01:15:31.864Z,8.72
2022-11-08T01:15:42.749Z,8.72
2022-11-08T01:15:53.655Z,8.75
2022-11-08T01:16:04.462Z,8.75
2022-11-08T01:16:15.195Z,8.75
2022-11-08T01:16:25.955Z,8.75
2022-11-08T01:16:36.773Z,8.75
2022-11-08T01:16:47.531Z,8.75
2022-11-08T01:16:58.288Z,8.75
2022-11-08T01:17:09.994Z,8.73
2022-11-08T01:17:21.727Z,8.72
2022-11-08T01:17:32.474Z,8.73
2022-11-08T01:17:43.208Z,8.72
2022-11-08T01:17:53.988Z,8.72
2022-11-08T01:18:04.731Z,8.73
2022-11-08T01:18:16.049Z,8.73
2022-11-08T01:18:27.065Z,8.75
2022-11-08T01:18:37.815Z,8.75
2022-11-08T01:18:48.554Z,8.73
2022-11-08T01:18:59.317Z,8.73
2022-11-08T01:19:11.027Z,8.73
2022-11-08T01:19:21.767Z,8.72
2022-11-08T01:19:33.474Z,8.73
2022-11-08T01:19:44.229Z,8.73
2022-11-08T01:19:54.986Z,8.71
2022-11-08T01:20:05.715Z,8.71
2022-11-08T01:20:16.445Z,8.69
2022-11-08T01:20:27.179Z,8.69
2022-11-08T01:20:37.919Z,8.69
2022-11-08T01:20:49.651Z,8.68
2022-11-08T01:21:01.876Z,8.68
2022-11-08T01:21:13.685Z,8.66
2022-11-08T01:21:27.440Z,8.65
2022-11-08T01:21:39.752Z,8.65
2022-11-08T01:21:52.219Z,8.63
2022-11-08T01:22:03.943Z,8.63
2022-11-08T01:22:15.723Z,8.60
2022-11-08T01:22:27.458Z,8.60
2022-11-08T01:22:39.990Z,8.60
2022-11-08T01:22:53.196Z,8.60
2022-11-08T01:23:03.947Z,8.60
2022-11-08T01:23:14.711Z,8.60
2022-11-08T01:23:25.507Z,8.60
2022-11-08T01:23:36.267Z,8.60
2022-11-08T01:23:47.005Z,8.62
2022-11-08T01:23:59.438Z,8.60
2022-11-08T01:24:11.186Z,8.58
2022-11-08T01:24:22.736Z,8.60
2022-11-08T01:24:33.507Z,8.60
2022-11-08T01:24:44.279Z,8.57
2022-11-08T01:24:55.020Z,8.58
2022-11-08T01:25:05.746Z,8.57
2022-11-08T01:25:17.978Z,8.57
2022-11-08T01:25:31.691Z,8.58
2022-11-08T01:25:43.407Z,8.60
2022-11-08T01:25:54.147Z,8.60
2022-11-08T01:26:04.887Z,8.60
2022-11-08T01:26:15.646Z,8.62
2022-11-08T01:26:29.413Z,8.60
2022-11-08T01:26:41.847Z,8.60
2022-11-08T01:26:52.597Z,8.62
2022-11-08T01:27:04.300Z,8.60
2022-11-08T01:27:15.099Z,8.60
2022-11-08T01:27:25.869Z,8.60
2022-11-08T01:27:36.599Z,8.58
2022-11-08T01:27:47.327Z,8.58
2022-11-08T01:27:58.087Z,8.60
2022-11-08T01:28:09.809Z,8.58
2022-11-08T01:28:20.965Z,8.58
2022-11-08T01:28:31.968Z,8.58
2022-11-08T01:28:42.749Z,8.58
2022-11-08T01:28:53.517Z,8.58
2022-11-08T01:29:04.298Z,8.60
2022-11-08T01:29:15.027Z,8.58
2022-11-08T01:29:26.972Z,8.60
2022-11-08T01:29:37.718Z,8.58
2022-11-08T01:29:48.496Z,8.58
2022-11-08T01:29:59.248Z,8.58
2022-11-08T01:30:09.999Z,8.58
2022-11-08T01:30:20.748Z,8.57
2022-11-08T01:30:31.511Z,8.55
2022-11-08T01:30:42.267Z,8.55
2022-11-08T01:30:53.949Z,8.54
2022-11-08T01:31:05.684Z,8.54
2022-11-08T01:31:17.901Z,8.53
2022-11-08T01:31:28.673Z,8.51
2022-11-08T01:31:40.826Z,8.53
2022-11-08T01:31:51.927Z,8.50
2022-11-08T01:32:02.651Z,8.48
2022-11-08T01:32:14.439Z,8.48
2022-11-08T01:32:25.190Z,8.50
2022-11-08T01:32:35.993Z,8.48
2022-11-08T01:32:46.768Z,8.48
2022-11-08T01:32:57.549Z,8.47
2022-11-08T01:33:08.354Z,8.48
2022-11-08T01:33:20.079Z,8.45
2022-11-08T01:33:30.895Z,8.47
2022-11-08T01:33:44.603Z,8.48
2022-11-08T01:33:57.261Z,8.48
2022-11-08T01:34:07.998Z,8.48
2022-11-08T01:34:18.749Z,8.48
2022-11-08T01:34:29.493Z,8.48
2022-11-08T01:34:42.667Z,8.47
2022-11-08T01:34:53.470Z,8.50
2022-11-08T01:35:04.253Z,8.48
2022-11-08T01:35:15.010Z,8.47
2022-11-08T01:35:26.710Z,8.47
2022-11-08T01:35:37.489Z,8.47
2022-11-08T01:35:48.208Z,8.45
2022-11-08T01:35:58.991Z,8.47
2022-11-08T01:36:10.951Z,8.45
2022-11-08T01:36:21.719Z,8.44
2022-11-08T01:36:32.478Z,8.45
2022-11-08T01:36:43.260Z,8.42
2022-11-08T01:36:54.063Z,8.42
2022-11-08T01:37:04.799Z,8.42
2022-11-08T01:37:15.572Z,8.44
2022-11-08T01:37:26.321Z,8.42
2022-11-08T01:37:37.089Z,8.44
2022-11-08T01:37:47.840Z,8.40
2022-11-08T01:37:58.600Z,8.40
2022-11-08T01:38:10.312Z,8.40
2022-11-08T01:38:21.239Z,8.39
2022-11-08T01:38:32.039Z,8.39
2022-11-08T01:38:42.801Z,8.36
2022-11-08T01:38:53.571Z,8.36
2022-11-08T01:39:04.332Z,8.35
2022-11-08T01:39:15.101Z,8.33
2022-11-08T01:39:25.851Z,8.33
2022-11-08T01:39:36.581Z,8.30
2022-11-08T01:39:47.361Z,8.30
2022-11-08T01:39:58.119Z,8.29
2022-11-08T01:40:08.852Z,8.30
2022-11-08T01:40:19.691Z,8.28
2022-11-08T01:40:30.452Z,8.26
2022-11-08T01:40:41.200Z,8.25
2022-11-08T01:40:52.922Z,8.25
2022-11-08T01:41:03.670Z,8.22
2022-11-08T01:41:15.427Z,8.21
2022-11-08T01:41:26.191Z,8.20
2022-11-08T01:41:36.943Z,8.20
2022-11-08T01:41:47.699Z,8.18
2022-11-08T01:42:00.977Z,8.17
2022-11-08T01:42:13.171Z,8.15
2022-11-08T01:42:23.931Z,8.14
2022-11-08T01:42:36.403Z,8.11
2022-11-08T01:42:47.182Z,8.11
2022-11-08T01:42:57.932Z,8.10
2022-11-08T01:43:09.681Z,8.08
2022-11-08T01:43:21.472Z,8.07
2022-11-08T01:43:32.254Z,8.03
2022-11-08T01:43:43.041Z,8.03
2022-11-08T01:43:53.840Z,8.00
2022-11-08T01:44:05.579Z,8.00
2022-11-08T01:44:17.328Z,7.97
2022-11-08T01:44:28.073Z,7.96
2022-11-08T01:44:38.811Z,7.94
2022-11-08T01:44:49.550Z,7.94
2022-11-08T01:45:02.040Z,7.93
2022-11-08T01:45:12.800Z,7.92
2022-11-08T01:45:23.531Z,7.92
2022-11-08T01:45:35.255Z,7.89
2022-11-08T01:45:46.970Z,7.87
2022-11-08T01:45:59.442Z,7.87
2022-11-08T01:46:10.257Z,7.85
2022-11-08T01:46:21.971Z,7.84
2022-11-08T01:46:34.175Z,7.85
2022-11-08T01:46:44.902Z,7.84
2022-11-08T01:46:56.623Z,7.82
2022-11-08T01:47:07.422Z,7.82
2022-11-08T01:47:19.150Z,7.82
2022-11-08T01:47:30.832Z,7.79
2022-11-08T01:47:41.621Z,7.79
2022-11-08T01:47:53.336Z,7.78
2022-11-08T01:48:05.587Z,7.78
2022-11-08T01:48:16.630Z,7.78
2022-11-08T01:48:29.264Z,7.77
2022-11-08T01:48:40.003Z,7.78
2022-11-08T01:48:50.771Z,7.77
2022-11-08T01:49:01.783Z,7.77
2022-11-08T01:49:14.734Z,7.75
2022-11-08T01:49:25.502Z,7.75
2022-11-08T01:49:37.215Z,7.75
2022-11-08T01:49:47.953Z,7.75
2022-11-08T01:49:59.711Z,7.75
2022-11-08T01:50:12.203Z,7.74
2022-11-08T01:50:22.953Z,7.74
2022-11-08T01:50:33.742Z,7.72
2022-11-08T01:50:44.505Z,7.72
2022-11-08T01:50:56.215Z,7.71
2022-11-08T01:51:08.133Z,7.71
2022-11-08T01:51:20.815Z,7.69
2022-11-08T01:51:32.585Z,7.71
2022-11-08T01:51:43.341Z,7.67
2022-11-08T01:51:55.094Z,7.67
2022-11-08T01:52:05.864Z,7.69
2022-11-08T01:52:16.685Z,7.67
2022-11-08T01:52:29.165Z,7.67
2022-11-08T01:52:39.905Z,7.63
2022-11-08T01:52:51.617Z,7.66
2022-11-08T01:53:02.368Z,7.66
2022-11-08T01:53:13.124Z,7.66
2022-11-08T01:53:24.834Z,7.66
2022-11-08T01:53:37.066Z,7.63
2022-11-08T01:53:47.834Z,7.63
2022-11-08T01:53:58.645Z,7.62
2022-11-08T01:54:10.433Z,7.62
2022-11-08T01:54:21.219Z,7.60
2022-11-08T01:54:31.963Z,7.59
2022-11-08T01:54:43.736Z,7.60
2022-11-08T01:54:54.525Z,7.59
2022-11-08T01:55:06.274Z,7.60
2022-11-08T01:55:17.016Z,7.58
2022-11-08T01:55:28.754Z,7.59
2022-11-08T01:55:41.165Z,7.58
2022-11-08T01:55:51.953Z,7.58
2022-11-08T01:56:04.365Z,7.58
2022-11-08T01:56:15.190Z,7.56
2022-11-08T01:56:26.884Z,7.55
2022-11-08T01:56:37.656Z,7.56
2022-11-08T01:56:48.434Z,7.53
2022-11-08T01:56:59.205Z,7.55
2022-11-08T01:57:10.925Z,7.55
2022-11-08T01:57:21.655Z,7.53
2022-11-08T01:57:33.376Z,7.52
2022-11-08T01:57:44.104Z,7.52
2022-11-08T01:57:55.817Z,7.50
2022-11-08T01:58:06.574Z,7.50
2022-11-08T01:58:17.855Z,7.49
2022-11-08T01:58:28.765Z,7.47
2022-11-08T01:58:39.509Z,7.49
2022-11-08T01:58:50.268Z,7.47
2022-11-08T01:59:01.045Z,7.45
2022-11-08T01:59:11.826Z,7.47
2022-11-08T01:59:23.520Z,7.45
2022-11-08T01:59:34.264Z,7.45
2022-11-08T01:59:45.024Z,7.44
2022-11-08T01:59:55.815Z,7.44
2022-11-08T02:00:06.600Z,7.44
2022-11-08T02:00:18.318Z,7.42
2022-11-08T02:00:30.005Z,7.42
2022-11-08T02:00:40.776Z,7.41
2022-11-08T02:00:51.550Z,7.42
2022-11-08T02:01:02.350Z,7.42
2022-11-08T02:01:13.135Z,7.42
2022-11-08T02:01:24.936Z,7.44
2022-11-08T02:01:35.805Z,7.47
2022-11-08T02:01:46.661Z,7.47
2022-11-08T02:01:57.642Z,7.49
2022-11-08T02:02:09.479Z,7.49
2022-11-08T02:02:20.361Z,7.50
2022-11-08T02:02:31.200Z,7.52
2022-11-08T02:02:43.375Z,7.52
2022-11-08T02:02:56.095Z,7.50
2022-11-08T02:03:06.844Z,7.52
2022-11-08T02:03:19.046Z,7.50
2022-11-08T02:03:29.818Z,7.50
2022-11-08T02:03:40.554Z,7.50
2022-11-08T02:03:51.345Z,7.52
2022-11-08T02:04:03.130Z,7.50
2022-11-08T02:04:14.828Z,7.50
2022-11-08T02:04:25.574Z,7.49
2022-11-08T02:04:36.407Z,7.49
2022-11-08T02:04:47.185Z,7.49
2022-11-08T02:04:59.075Z,7.49
2022-11-08T02:05:11.545Z,7.47
2022-11-08T02:05:22.307Z,7.45
2022-11-08T02:05:34.031Z,7.44
2022-11-08T02:05:47.239Z,7.45
2022-11-08T02:06:00.442Z,7.44
2022-11-08T02:06:11.181Z,7.42
2022-11-08T02:06:22.007Z,7.44
2022-11-08T02:06:32.748Z,7.44
2022-11-08T02:06:44.487Z,7.42
2022-11-08T02:06:56.226Z,7.44
2022-11-08T02:07:06.980Z,7.45
2022-11-08T02:07:17.718Z,7.44
2022-11-08T02:07:28.526Z,7.44
2022-11-08T02:07:39.247Z,7.42
2022-11-08T02:07:49.986Z,7.42
2022-11-08T02:08:00.730Z,7.42
2022-11-08T02:08:11.456Z,7.41
2022-11-08T02:08:24.667Z,7.41
2022-11-08T02:08:38.379Z,7.41
2022-11-08T02:08:49.137Z,7.40
2022-11-08T02:08:59.897Z,7.40
2022-11-08T02:09:10.679Z,7.40
2022-11-08T02:09:23.155Z,7.37
2022-11-08T02:09:34.857Z,7.37
2022-11-08T02:09:47.276Z,7.35
2022-11-08T02:09:58.037Z,7.35
2022-11-08T02:10:10.987Z,7.32
2022-11-08T02:10:21.729Z,7.34
2022-11-08T02:10:32.494Z,7.32
2022-11-08T02:10:43.247Z,7.34
2022-11-08T02:10:54.024Z,7.34
2022-11-08T02:11:04.789Z,7.32
2022-11-08T02:11:15.537Z,7.31
2022-11-08T02:11:26.295Z,7.32
2022-11-08T02:11:38.040Z,7.31
2022-11-08T02:11:48.829Z,7.31
2022-11-08T02:12:01.327Z,7.31
2022-11-08T02:12:13.090Z,7.31
2022-11-08T02:12:23.898Z,7.31
2022-11-08T02:12:36.337Z,7.31
2022-11-08T02:12:47.108Z,7.31
2022-11-08T02:13:02.536Z,7.29
2022-11-08T02:13:15.927Z,7.29
2022-11-08T02:13:26.658Z,7.27
2022-11-08T02:13:39.892Z,7.27
2022-11-08T02:13:50.648Z,7.26
2022-11-08T02:14:01.438Z,7.24
2022-11-08T02:14:12.218Z,7.26
2022-11-08T02:14:22.948Z,7.24
2022-11-08T02:14:33.684Z,7.24
2022-11-08T02:14:44.416Z,7.23
2022-11-08T02:14:56.139Z,7.23
2022-11-08T02:15:08.378Z,7.22
2022-11-08T02:15:20.089Z,7.20
2022-11-08T02:15:30.900Z,7.20
2022-11-08T02:15:42.630Z,7.19
2022-11-08T02:15:53.433Z,7.19
2022-11-08T02:16:05.669Z,7.17
2022-11-08T02:16:16.411Z,7.17
2022-11-08T02:16:27.237Z,7.17
2022-11-08T02:16:37.980Z,7.16
2022-11-08T02:16:48.712Z,7.15
2022-11-08T02:17:00.451Z,7.16
2022-11-08T02:17:13.459Z,7.15
2022-11-08T02:17:26.680Z,7.15
2022-11-08T02:17:37.502Z,7.13
2022-11-08T02:17:48.282Z,7.13
2022-11-08T02:17:59.029Z,7.13
2022-11-08T02:18:10.763Z,7.13
2022-11-08T02:18:21.763Z,7.12
2022-11-08T02:18:33.659Z,7.12
2022-11-08T02:18:44.439Z,7.12
2022-11-08T02:18:55.168Z,7.09
2022-11-08T02:19:05.940Z,7.12
2022-11-08T02:19:16.723Z,7.09
2022-11-08T02:19:27.534Z,7.09
2022-11-08T02:19:38.270Z,7.09
2022-11-08T02:19:48.999Z,7.09
2022-11-08T02:19:59.741Z,7.09
2022-11-08T02:20:12.150Z,7.07
2022-11-08T02:20:23.850Z,7.07
2022-11-08T02:20:35.540Z,7.08
2022-11-08T02:20:46.276Z,7.07
2022-11-08T02:20:57.050Z,7.05
2022-11-08T02:21:09.520Z,7.04
2022-11-08T02:21:20.270Z,7.02
2022-11-08T02:21:31.079Z,7.02
2022-11-08T02:21:41.833Z,7.02
2022-11-08T02:21:53.631Z,7.01
2022-11-08T02:22:05.351Z,7.01
2022-11-08T02:22:16.111Z,7.01
2022-11-08T02:22:28.592Z,6.99
2022-11-08T02:22:39.339Z,6.99
2022-11-08T02:22:50.078Z,6.99
2022-11-08T02:23:00.849Z,6.98
2022-11-08T02:23:11.650Z,6.98
2022-11-08T02:23:22.431Z,6.95
2022-11-08T02:23:34.930Z,6.97
2022-11-08T02:23:45.733Z,6.97
2022-11-08T02:23:57.453Z,6.97
2022-11-08T02:24:08.209Z,6.95
2022-11-08T02:24:18.945Z,6.97
2022-11-08T02:24:29.700Z,6.97
2022-11-08T02:24:41.404Z,6.95
2022-11-08T02:24:52.141Z,6.95
2022-11-08T02:25:03.844Z,6.94
2022-11-08T02:25:16.083Z,6.94
2022-11-08T02:25:26.860Z,6.95
2022-11-08T02:25:40.084Z,6.95
2022-11-08T02:25:50.851Z,6.91
2022-11-08T02:26:03.311Z,6.94
2022-11-08T02:26:15.033Z,6.91
2022-11-08T02:26:26.810Z,6.91
2022-11-08T02:26:38.481Z,6.89
2022-11-08T02:26:49.328Z,6.89
2022-11-08T02:27:00.085Z,6.90
2022-11-08T02:27:10.843Z,6.90
2022-11-08T02:27:21.601Z,6.89
2022-11-08T02:27:34.310Z,6.87
2022-11-08T02:27:46.811Z,6.87
2022-11-08T02:27:58.550Z,6.89
2022-11-08T02:28:10.290Z,6.86
2022-11-08T02:28:21.276Z,6.86
2022-11-08T02:28:32.071Z,6.86
2022-11-08T02:28:42.836Z,6.84
2022-11-08T02:28:53.603Z,6.83
2022-11-08T02:29:04.340Z,6.83
2022-11-08T02:29:16.791Z,6.83
2022-11-08T02:29:27.529Z,6.81
2022-11-08T02:29:39.982Z,6.81
2022-11-08T02:29:51.692Z,6.81
2022-11-08T02:30:02.422Z,6.80
2022-11-08T02:30:15.641Z,6.80
2022-11-08T02:30:26.382Z,6.80
2022-11-08T02:30:39.602Z,6.80